Time;durP1;ratioP1;P1;durP2;ratioP2;P2;SDS_P1;SDS_P2;PMS_P1;PMS_P2;Temp;Humidity;BMP_temperature;BMP_pressure;BME280_temperature;BME280_humidity;BME280_pressure;Samples;Min_cycle;Max_cycle;Signal;HPM_P1;HPM_P2
2023/06/14 00:01:41;;;;;;;10.67;9.97;;;20.40;5.10;;;;;;4990636;28;20185;-60
2023/06/14 00:04:08;;;;;;;9.30;8.60;;;20.20;4.90;;;;;;4991274;28;20587;-60
2023/06/14 00:06:34;;;;;;;9.83;9.30;;;20.00;5.00;;;;;;4991175;28;20232;-60
2023/06/14 00:09:00;;;;;;;10.43;9.87;;;19.80;5.20;;;;;;4991234;28;20469;-60
2023/06/14 00:11:26;;;;;;;10.17;9.57;;;19.60;5.50;;;;;;4992371;28;20174;-60
2023/06/14 00:13:52;;;;;;;10.20;9.50;;;19.60;5.80;;;;;;4991360;28;20178;-59
2023/06/14 00:16:19;;;;;;;10.00;9.50;;;19.50;6.00;;;;;;4991448;28;20500;-59
2023/06/14 00:18:45;;;;;;;10.63;9.73;;;19.30;6.40;;;;;;4991130;28;20417;-60
2023/06/14 00:21:12;;;;;;;10.77;9.87;;;19.20;6.80;;;;;;4990986;28;20424;-60
2023/06/14 00:23:37;;;;;;;10.47;9.80;;;19.20;6.80;;;;;;4991205;28;20456;-59
2023/06/14 00:26:03;;;;;;;9.70;9.20;;;19.10;6.90;;;;;;4991199;28;20421;-59
2023/06/14 00:28:29;;;;;;;10.87;10.17;;;19.20;7.50;;;;;;4991156;28;20248;-59
2023/06/14 00:30:55;;;;;;;9.33;8.93;;;19.40;7.20;;;;;;4991054;28;20453;-59
2023/06/14 00:33:21;;;;;;;9.90;9.17;;;19.50;6.60;;;;;;4994247;28;20611;-59
2023/06/14 00:35:47;;;;;;;11.10;10.30;;;19.60;6.80;;;;;;4994765;28;20631;-59
2023/06/14 00:38:12;;;;;;;9.57;9.10;;;19.70;6.80;;;;;;4996045;28;20167;-59
2023/06/14 00:40:38;;;;;;;9.67;9.17;;;19.80;6.60;;;;;;4994588;28;20445;-59
2023/06/14 00:43:04;;;;;;;9.83;9.23;;;19.80;6.60;;;;;;4994202;28;20186;-60
2023/06/14 00:45:31;;;;;;;10.03;9.50;;;19.80;6.50;;;;;;4994669;28;20182;-59
2023/06/14 00:47:57;;;;;;;10.23;9.63;;;19.90;6.60;;;;;;4995810;28;20209;-60
2023/06/14 00:50:23;;;;;;;10.13;9.43;;;19.90;6.50;;;;;;4994597;28;20451;-59
2023/06/14 00:52:49;;;;;;;10.47;9.77;;;19.90;6.60;;;;;;4995383;28;20806;-60
2023/06/14 00:55:15;;;;;;;9.80;9.10;;;20.00;6.60;;;;;;4994637;28;20826;-60
2023/06/14 00:57:41;;;;;;;10.30;9.67;;;20.00;6.50;;;;;;4994415;28;20421;-59
2023/06/14 01:00:09;;;;;;;9.70;9.10;;;20.00;6.70;;;;;;4994547;28;20639;-60
2023/06/14 01:02:38;;;;;;;10.43;9.60;;;20.00;7.10;;;;;;4994059;28;20182;-60
2023/06/14 01:05:06;;;;;;;10.33;9.63;;;19.60;7.20;;;;;;4994435;28;20448;-60
2023/06/14 01:07:50;;;;;;;9.90;9.33;;;19.50;7.50;;;;;;4994152;28;20872;-60
2023/06/14 01:10:35;;;;;;;9.40;8.77;;;19.60;7.40;;;;;;4994440;28;20413;-60
2023/06/14 01:13:06;;;;;;;9.70;9.07;;;19.70;7.00;;;;;;4993967;28;20432;-60
2023/06/14 01:15:32;;;;;;;9.53;8.90;;;19.70;6.70;;;;;;4995354;28;20963;-59
2023/06/14 01:18:03;;;;;;;9.87;9.37;;;19.80;6.20;;;;;;4994008;28;20425;-59
2023/06/14 01:20:36;;;;;;;10.17;9.37;;;19.80;6.50;;;;;;4994064;28;20413;-59
2023/06/14 01:23:02;;;;;;;10.03;9.33;;;19.80;6.50;;;;;;4993469;28;20421;-58
2023/06/14 01:25:28;;;;;;;9.13;8.63;;;19.80;6.60;;;;;;4993932;28;20424;-59
2023/06/14 01:27:58;;;;;;;9.80;9.20;;;19.80;6.70;;;;;;4993928;28;20216;-59
2023/06/14 01:30:27;;;;;;;9.90;9.30;;;19.80;7.00;;;;;;4993953;28;20178;-59
2023/06/14 01:32:55;;;;;;;9.57;8.97;;;19.80;7.00;;;;;;4993171;28;20418;-58
2023/06/14 01:35:21;;;;;;;10.30;9.70;;;19.80;6.90;;;;;;4993835;28;20773;-60
2023/06/14 01:37:48;;;;;;;10.73;10.13;;;19.80;7.00;;;;;;4993603;28;20475;-60
2023/06/14 01:40:15;;;;;;;10.27;9.67;;;19.80;6.80;;;;;;4993507;28;20934;-60
2023/06/14 01:42:42;;;;;;;10.00;9.30;;;19.80;6.90;;;;;;4992664;28;20788;-60
2023/06/14 01:45:10;;;;;;;10.90;9.80;;;19.70;6.90;;;;;;4993228;28;20793;-59
2023/06/14 01:47:36;;;;;;;10.53;9.63;;;19.70;7.20;;;;;;4993313;28;20453;-59
2023/06/14 01:50:03;;;;;;;10.83;9.93;;;19.70;7.30;;;;;;4993535;28;20405;-59
2023/06/14 01:52:28;;;;;;;10.17;9.30;;;19.60;7.40;;;;;;4992886;28;20425;-59
2023/06/14 01:54:54;;;;;;;10.50;9.70;;;19.60;7.60;;;;;;4993349;28;20929;-59
2023/06/14 01:57:21;;;;;;;10.07;9.57;;;19.60;7.60;;;;;;4993348;28;20178;-60
2023/06/14 01:59:48;;;;;;;10.30;9.60;;;19.60;7.50;;;;;;4993227;28;20595;-59
2023/06/14 02:02:14;;;;;;;11.23;10.53;;;19.50;7.60;;;;;;4992788;28;20428;-60
2023/06/14 02:05:11;;;;;;;10.03;9.53;;;19.50;7.70;;;;;;4993189;28;20563;-60
2023/06/14 02:07:37;;;;;;;11.07;10.17;;;19.40;7.80;;;;;;4993103;28;20518;-60
2023/06/14 02:10:04;;;;;;;9.50;9.00;;;19.50;8.30;;;;;;4993230;28;20425;-60
2023/06/14 02:12:29;;;;;;;10.00;9.20;;;19.50;8.10;;;;;;4992725;28;20181;-60
2023/06/14 02:14:56;;;;;;;11.03;10.30;;;19.30;8.20;;;;;;4993087;28;20413;-60
2023/06/14 02:17:22;;;;;;;10.90;10.17;;;19.20;8.60;;;;;;4992960;28;20181;-60
2023/06/14 02:19:48;;;;;;;10.87;10.17;;;19.10;8.40;;;;;;4992944;28;20423;-60
2023/06/14 02:22:14;;;;;;;10.60;10.00;;;19.20;8.40;;;;;;4992494;28;20417;-60
2023/06/14 02:24:43;;;;;;;10.90;10.20;;;19.20;8.40;;;;;;4992872;28;20418;-59
2023/06/14 02:27:12;;;;;;;10.73;10.00;;;19.20;8.40;;;;;;4992919;28;20512;-60
2023/06/14 02:29:37;;;;;;;10.60;10.00;;;19.20;8.20;;;;;;4992791;28;20816;-59
2023/06/14 02:32:05;;;;;;;10.50;9.90;;;19.20;8.10;;;;;;4992250;28;20413;-60
2023/06/14 02:34:30;;;;;;;10.50;9.80;;;19.20;8.10;;;;;;4992646;28;20185;-59
2023/06/14 02:36:57;;;;;;;10.73;10.03;;;19.20;8.10;;;;;;4992689;28;20413;-60
2023/06/14 02:39:23;;;;;;;9.67;9.17;;;19.20;8.30;;;;;;4992746;28;20182;-59
2023/06/14 02:41:50;;;;;;;10.37;9.77;;;19.20;8.20;;;;;;4992092;28;20441;-59
2023/06/14 02:44:18;;;;;;;9.90;9.30;;;19.20;8.10;;;;;;4992630;28;20424;-59
2023/06/14 02:46:43;;;;;;;10.63;10.03;;;19.30;8.20;;;;;;4992315;28;20441;-59
2023/06/14 02:49:10;;;;;;;10.50;9.87;;;19.30;8.20;;;;;;4992359;28;20503;-59
2023/06/14 02:51:35;;;;;;;10.50;9.80;;;19.30;8.20;;;;;;4991977;28;20178;-60
2023/06/14 02:54:01;;;;;;;10.53;9.83;;;19.30;8.20;;;;;;4992245;28;20852;-60
2023/06/14 02:56:27;;;;;;;10.47;9.87;;;19.10;9.00;;;;;;4992356;28;20171;-62
2023/06/14 02:58:53;;;;;;;9.60;9.00;;;18.90;9.50;;;;;;4992386;28;20601;-60
2023/06/14 03:01:20;;;;;;;10.50;9.80;;;18.90;9.40;;;;;;4991784;28;21316;-60
2023/06/14 03:03:46;;;;;;;11.10;10.50;;;18.90;9.30;;;;;;4992143;28;20192;-60
2023/06/14 03:06:13;;;;;;;11.07;10.30;;;19.00;9.30;;;;;;4992143;28;20500;-60
2023/06/14 03:08:42;;;;;;;11.00;10.40;;;19.00;9.20;;;;;;4992017;28;20205;-61
2023/06/14 03:11:08;;;;;;;11.20;10.60;;;19.00;9.00;;;;;;4991743;28;20780;-60
2023/06/14 03:13:38;;;;;;;11.07;10.33;;;19.00;9.00;;;;;;4991984;28;20808;-61
2023/06/14 03:16:04;;;;;;;11.30;10.53;;;19.10;9.00;;;;;;4992060;28;20420;-60
2023/06/14 03:18:35;;;;;;;11.13;10.53;;;19.10;9.00;;;;;;4991904;28;20425;-60
2023/06/14 03:21:04;;;;;;;10.77;10.17;;;19.10;8.90;;;;;;4992023;28;20789;-61
2023/06/14 03:23:31;;;;;;;10.80;10.03;;;19.10;8.90;;;;;;4991581;28;20413;-59
2023/06/14 03:25:56;;;;;;;10.60;10.00;;;19.10;9.00;;;;;;4991726;28;20418;-59
2023/06/14 03:28:22;;;;;;;10.90;10.30;;;19.10;8.90;;;;;;4991811;28;20995;-59
2023/06/14 03:30:48;;;;;;;10.93;10.37;;;19.10;8.90;;;;;;4992820;28;20232;-59
2023/06/14 03:33:13;;;;;;;11.13;10.43;;;19.10;8.80;;;;;;4991170;28;20635;-59
2023/06/14 03:35:39;;;;;;;11.13;10.53;;;19.00;8.90;;;;;;4991592;28;20182;-59
2023/06/14 03:38:05;;;;;;;10.43;9.83;;;19.00;9.00;;;;;;4991628;28;20560;-59
2023/06/14 03:40:31;;;;;;;10.43;9.90;;;18.90;9.10;;;;;;4991454;28;20677;-60
2023/06/14 03:42:56;;;;;;;10.33;9.73;;;18.90;9.20;;;;;;4991151;28;20717;-60
2023/06/14 03:45:22;;;;;;;11.10;10.50;;;18.80;9.40;;;;;;4991645;28;20212;-60
2023/06/14 03:47:48;;;;;;;10.03;9.43;;;18.80;9.50;;;;;;4991563;28;20244;-60
2023/06/14 03:50:15;;;;;;;10.57;9.87;;;18.80;9.70;;;;;;4991627;28;20372;-60
2023/06/14 03:52:42;;;;;;;11.27;10.67;;;18.90;9.80;;;;;;4991258;28;20475;-60
2023/06/14 03:55:08;;;;;;;10.43;9.73;;;18.80;9.80;;;;;;4991574;28;20499;-60
2023/06/14 03:57:34;;;;;;;10.47;9.87;;;18.80;9.80;;;;;;4991452;28;20942;-60
2023/06/14 03:59:59;;;;;;;10.83;9.93;;;18.80;10.00;;;;;;4991444;28;20424;-59
2023/06/14 04:02:28;;;;;;;11.37;10.63;;;18.80;10.10;;;;;;4990829;28;20229;-60
2023/06/14 04:04:54;;;;;;;11.70;10.80;;;18.80;10.20;;;;;;4991111;28;20197;-59
2023/06/14 04:07:20;;;;;;;10.90;10.20;;;18.80;10.20;;;;;;4993433;28;20417;-59
2023/06/14 04:09:46;;;;;;;11.40;10.80;;;18.80;10.30;;;;;;4995238;28;20416;-59
2023/06/14 04:12:12;;;;;;;12.27;11.23;;;18.80;10.60;;;;;;4994983;28;20213;-59
2023/06/14 04:14:38;;;;;;;10.93;10.23;;;18.80;10.60;;;;;;4995116;28;20429;-59
2023/06/14 04:17:04;;;;;;;11.40;10.80;;;18.80;10.60;;;;;;4995102;28;20237;-59
2023/06/14 04:19:30;;;;;;;12.10;11.40;;;18.80;10.80;;;;;;4995220;28;20509;-59
2023/06/14 04:21:56;;;;;;;12.30;11.37;;;18.80;10.60;;;;;;4994648;28;20504;-58
2023/06/14 04:24:22;;;;;;;11.50;10.70;;;18.80;10.70;;;;;;4995080;28;20456;-58
2023/06/14 04:26:49;;;;;;;11.97;11.17;;;18.80;10.80;;;;;;4994916;28;20224;-58
2023/06/14 04:29:16;;;;;;;12.97;12.17;;;18.80;10.80;;;;;;4994853;28;20465;-60
2023/06/14 04:31:42;;;;;;;11.83;11.13;;;18.80;10.80;;;;;;4994397;28;20435;-59
2023/06/14 04:34:08;;;;;;;12.73;11.93;;;18.80;10.60;;;;;;4994853;28;20417;-59
2023/06/14 04:36:36;;;;;;;12.60;11.77;;;18.80;10.10;;;;;;4994734;28;20451;-59
2023/06/14 04:39:03;;;;;;;12.50;11.80;;;18.80;10.10;;;;;;4994756;28;20704;-59
2023/06/14 04:41:32;;;;;;;11.43;10.60;;;18.70;10.30;;;;;;4994116;28;20437;-60
2023/06/14 04:44:01;;;;;;;13.00;11.70;;;18.70;10.40;;;;;;4994606;28;20960;-59
2023/06/14 04:46:28;;;;;;;12.27;11.47;;;18.70;10.40;;;;;;4994653;28;20500;-60
2023/06/14 04:48:54;;;;;;;12.50;11.87;;;18.70;10.80;;;;;;4993959;28;20836;-59
2023/06/14 04:51:22;;;;;;;12.03;11.27;;;18.70;10.40;;;;;;4994130;28;20555;-59
2023/06/14 04:53:49;;;;;;;11.60;10.90;;;18.70;10.10;;;;;;4994409;28;20417;-58
2023/06/14 04:56:16;;;;;;;11.80;11.13;;;18.80;10.50;;;;;;4994474;28;20563;-58
2023/06/14 04:58:43;;;;;;;11.40;10.90;;;18.70;10.60;;;;;;4994232;28;20467;-59
2023/06/14 05:01:09;;;;;;;12.20;11.00;;;18.80;10.80;;;;;;4993939;28;20508;-58
2023/06/14 05:03:34;;;;;;;12.37;11.37;;;18.80;10.60;;;;;;4994095;28;20899;-58
2023/06/14 05:06:00;;;;;;;11.90;11.10;;;18.80;11.00;;;;;;4994224;28;20174;-58
2023/06/14 05:08:26;;;;;;;12.20;11.50;;;18.80;11.00;;;;;;4994195;28;20344;-59
2023/06/14 05:10:52;;;;;;;13.30;12.40;;;18.90;10.90;;;;;;4993969;28;20221;-59
2023/06/14 05:13:18;;;;;;;12.57;11.77;;;18.90;11.00;;;;;;4993560;28;20416;-58
2023/06/14 05:15:44;;;;;;;12.10;11.40;;;18.90;11.10;;;;;;4994142;28;20417;-59
2023/06/14 05:18:10;;;;;;;12.30;11.60;;;18.80;11.20;;;;;;4994016;28;20512;-59
2023/06/14 05:20:37;;;;;;;11.83;10.90;;;18.80;12.30;;;;;;4993880;28;20178;-59
2023/06/14 05:23:02;;;;;;;12.50;11.80;;;18.80;11.70;;;;;;4993527;28;20173;-59
2023/06/14 05:25:28;;;;;;;11.37;10.67;;;18.80;11.10;;;;;;4994009;28;20781;-59
2023/06/14 05:27:54;;;;;;;11.40;10.80;;;18.90;10.80;;;;;;4993879;28;20210;-60
2023/06/14 05:30:20;;;;;;;11.50;10.90;;;18.90;10.90;;;;;;4994033;28;20245;-61
2023/06/14 05:32:45;;;;;;;12.07;11.37;;;19.00;10.70;;;;;;4994946;28;20174;-60
2023/06/14 05:35:11;;;;;;;11.03;10.43;;;19.00;10.80;;;;;;4993788;28;20189;-60
2023/06/14 05:37:37;;;;;;;11.77;10.67;;;19.00;11.50;;;;;;4993636;28;20204;-59
2023/06/14 05:40:07;;;;;;;11.63;10.83;;;19.00;11.10;;;;;;4993419;28;20182;-61
2023/06/14 05:42:33;;;;;;;11.07;10.37;;;19.10;10.30;;;;;;4993198;28;20639;-61
2023/06/14 05:44:59;;;;;;;10.80;10.20;;;19.10;11.00;;;;;;4993497;28;20465;-60
2023/06/14 05:47:25;;;;;;;11.30;10.60;;;19.10;10.70;;;;;;4993349;28;20488;-60
2023/06/14 05:49:51;;;;;;;13.13;12.23;;;19.10;10.80;;;;;;4993443;28;20181;-61
2023/06/14 05:52:16;;;;;;;12.10;11.20;;;19.10;10.60;;;;;;4992975;28;20421;-61
2023/06/14 05:54:42;;;;;;;11.50;10.70;;;19.20;10.80;;;;;;4993328;28;20178;-61
2023/06/14 05:57:08;;;;;;;12.23;11.53;;;19.20;10.50;;;;;;4994705;28;20564;-61
2023/06/14 05:59:34;;;;;;;13.27;12.30;;;19.20;11.10;;;;;;4993435;28;20178;-60
2023/06/14 06:01:59;;;;;;;11.30;10.70;;;19.20;10.80;;;;;;4993071;28;20185;-60
2023/06/14 06:04:25;;;;;;;11.90;11.20;;;19.20;10.80;;;;;;4993308;28;20779;-60
2023/06/14 06:06:51;;;;;;;11.60;11.00;;;19.10;10.90;;;;;;4993220;28;20186;-60
2023/06/14 06:09:16;;;;;;;12.50;11.70;;;19.20;10.90;;;;;;4993236;28;20233;-60
2023/06/14 06:11:42;;;;;;;11.17;10.57;;;19.10;10.60;;;;;;4992613;28;20174;-60
2023/06/14 06:14:07;;;;;;;11.87;10.97;;;19.10;10.90;;;;;;4993193;28;20182;-60
2023/06/14 06:16:33;;;;;;;13.17;12.30;;;19.20;10.90;;;;;;4993064;28;20662;-60
2023/06/14 06:18:59;;;;;;;12.73;11.90;;;19.10;11.00;;;;;;4993092;28;20186;-60
2023/06/14 06:21:25;;;;;;;11.30;10.70;;;19.00;11.20;;;;;;4992600;28;20240;-60
2023/06/14 06:23:50;;;;;;;12.10;11.40;;;19.10;11.60;;;;;;4992931;28;20260;-60
2023/06/14 06:26:16;;;;;;;11.83;11.13;;;19.20;12.00;;;;;;4992906;28;20178;-60
2023/06/14 06:28:41;;;;;;;11.70;11.00;;;19.30;11.80;;;;;;4992573;28;20202;-62
2023/06/14 06:31:07;;;;;;;12.13;11.33;;;19.30;11.10;;;;;;4992306;28;20651;-61
2023/06/14 06:33:32;;;;;;;12.53;11.73;;;19.20;12.20;;;;;;4992627;28;20221;-60
2023/06/14 06:35:58;;;;;;;12.43;11.63;;;19.30;11.40;;;;;;4992874;28;20185;-61
2023/06/14 06:38:24;;;;;;;12.70;11.90;;;19.30;11.30;;;;;;4992624;28;20188;-61
2023/06/14 06:40:50;;;;;;;12.50;11.80;;;19.40;11.40;;;;;;4992559;28;20677;-60
2023/06/14 06:43:17;;;;;;;13.63;12.83;;;19.40;11.00;;;;;;4992385;28;20788;-61
2023/06/14 06:45:43;;;;;;;12.60;11.80;;;19.40;11.40;;;;;;4992518;28;20174;-59
2023/06/14 06:48:11;;;;;;;11.97;11.27;;;19.50;11.40;;;;;;4992428;28;20818;-59
2023/06/14 06:50:37;;;;;;;13.77;12.63;;;19.50;12.40;;;;;;4992320;28;20424;-60
2023/06/14 06:53:02;;;;;;;12.07;11.37;;;19.60;11.30;;;;;;4992096;28;20409;-61
2023/06/14 06:55:28;;;;;;;12.53;11.83;;;19.70;11.30;;;;;;4992388;28;20170;-60
2023/06/14 06:57:54;;;;;;;12.63;12.00;;;19.70;11.30;;;;;;4992401;28;20178;-60
2023/06/14 07:00:21;;;;;;;13.60;12.60;;;19.70;10.90;;;;;;4992397;28;20182;-61
2023/06/14 07:02:46;;;;;;;12.93;11.83;;;19.80;10.70;;;;;;4991922;28;20435;-61
2023/06/14 07:05:12;;;;;;;11.97;11.27;;;19.80;10.80;;;;;;4992297;28;20413;-60
2023/06/14 07:07:38;;;;;;;11.83;11.20;;;19.80;10.70;;;;;;4992059;28;20178;-61
2023/06/14 07:10:04;;;;;;;11.60;10.70;;;19.80;11.00;;;;;;4993411;28;20189;-61
2023/06/14 07:12:33;;;;;;;12.83;12.00;;;19.90;10.80;;;;;;4991694;28;20289;-60
2023/06/14 07:14:59;;;;;;;12.70;11.80;;;19.90;10.40;;;;;;4992161;28;20436;-60
2023/06/14 07:17:25;;;;;;;11.83;11.13;;;19.90;9.80;;;;;;4992088;28;20508;-61
2023/06/14 07:19:51;;;;;;;13.03;11.70;;;19.90;10.40;;;;;;4993431;28;20504;-61
2023/06/14 07:22:17;;;;;;;13.03;12.27;;;20.00;10.90;;;;;;4991548;28;20182;-60
2023/06/14 07:24:43;;;;;;;13.60;12.80;;;20.00;10.70;;;;;;4991928;28;20204;-61
2023/06/14 07:27:10;;;;;;;13.47;12.60;;;20.10;10.50;;;;;;4991880;28;20413;-60
2023/06/14 07:29:36;;;;;;;13.43;12.63;;;20.10;10.30;;;;;;4991846;28;20297;-61
2023/06/14 07:32:01;;;;;;;13.30;12.20;;;20.10;10.40;;;;;;4992592;28;20552;-60
2023/06/14 07:34:27;;;;;;;13.97;12.90;;;20.10;10.50;;;;;;4991696;28;20269;-58
2023/06/14 07:36:54;;;;;;;12.87;12.17;;;20.10;10.40;;;;;;4991697;28;20185;-59
2023/06/14 07:39:20;;;;;;;11.67;10.87;;;20.20;10.30;;;;;;4991478;28;20557;-59
2023/06/14 07:41:45;;;;;;;12.03;11.43;;;20.20;9.20;;;;;;4990025;28;20441;-59
2023/06/14 07:44:12;;;;;;;11.93;11.33;;;20.30;8.90;;;;;;4991515;28;20676;-59
2023/06/14 07:46:37;;;;;;;13.57;12.90;;;20.30;9.40;;;;;;4991451;28;20548;-59
2023/06/14 07:49:03;;;;;;;12.87;11.93;;;20.40;9.20;;;;;;4991411;28;20464;-59
2023/06/14 07:51:29;;;;;;;12.50;11.80;;;20.40;8.70;;;;;;4990927;28;20279;-59
2023/06/14 07:53:55;;;;;;;13.00;12.17;;;20.40;9.00;;;;;;4991365;28;20174;-59
2023/06/14 07:56:21;;;;;;;12.97;12.30;;;20.40;9.80;;;;;;4991409;28;20182;-59
2023/06/14 07:58:46;;;;;;;12.50;11.83;;;20.40;9.90;;;;;;4991362;28;20182;-59
2023/06/14 08:01:12;;;;;;;12.60;11.90;;;20.50;9.30;;;;;;4990918;28;20955;-59
2023/06/14 08:03:38;;;;;;;14.10;12.90;;;20.60;9.70;;;;;;4991470;28;20265;-59
2023/06/14 08:06:04;;;;;;;12.70;12.03;;;20.60;11.40;;;;;;4991426;28;20205;-60
2023/06/14 08:08:30;;;;;;;16.87;13.00;;;20.70;10.00;;;;;;4991051;28;20336;-60
2023/06/14 08:10:56;;;;;;;12.17;11.37;;;20.70;9.10;;;;;;4991355;28;20417;-59
2023/06/14 08:13:21;;;;;;;12.87;11.90;;;20.80;8.90;;;;;;4990988;28;20417;-60
2023/06/14 08:15:47;;;;;;;14.30;13.20;;;20.90;9.60;;;;;;4991136;28;20184;-59
2023/06/14 08:18:13;;;;;;;13.77;12.60;;;20.90;9.30;;;;;;4991196;28;20661;-59
2023/06/14 08:20:39;;;;;;;13.27;12.27;;;20.90;9.30;;;;;;4991240;28;20186;-59
2023/06/14 08:23:05;;;;;;;12.63;11.93;;;20.90;9.70;;;;;;4990768;28;20790;-59
2023/06/14 08:25:31;;;;;;;12.77;12.07;;;21.00;9.70;;;;;;4991258;28;20441;-59
2023/06/14 08:27:56;;;;;;;12.80;12.10;;;21.00;9.80;;;;;;4991131;28;20217;-59
2023/06/14 08:30:22;;;;;;;12.57;11.90;;;21.10;10.20;;;;;;4991072;28;20178;-59
2023/06/14 08:32:48;;;;;;;14.07;12.97;;;21.10;9.80;;;;;;4990467;28;20224;-59
2023/06/14 08:35:14;;;;;;;13.10;12.07;;;21.40;9.50;;;;;;4991013;28;20445;-59
2023/06/14 08:37:41;;;;;;;13.60;12.90;;;21.50;9.70;;;;;;4991025;28;20590;-59
2023/06/14 08:40:13;;;;;;;13.13;11.90;;;21.50;10.30;;;;;;4990877;28;20561;-59
2023/06/14 08:42:38;;;;;;;12.60;11.37;;;21.50;10.10;;;;;;4990496;28;20921;-59
2023/06/14 08:45:04;;;;;;;13.87;12.60;;;21.50;9.70;;;;;;4991043;28;20421;-60
2023/06/14 08:47:36;;;;;;;13.13;12.03;;;21.50;9.70;;;;;;4990785;28;20663;-60
2023/06/14 08:50:03;;;;;;;11.90;11.10;;;21.50;9.70;;;;;;4991051;28;20516;-59
2023/06/14 08:52:34;;;;;;;11.97;11.13;;;21.50;9.80;;;;;;4991124;28;20936;-60
2023/06/14 08:55:02;;;;;;;12.33;11.43;;;21.50;10.30;;;;;;4994636;28;20417;-59
2023/06/14 08:57:30;;;;;;;11.93;11.33;;;21.60;9.70;;;;;;4994352;28;20421;-60
2023/06/14 08:59:56;;;;;;;12.90;12.07;;;21.60;10.50;;;;;;4994508;28;20893;-60
2023/06/14 09:02:22;;;;;;;11.57;10.87;;;21.60;9.70;;;;;;4993819;28;20465;-60
2023/06/14 09:04:49;;;;;;;11.40;10.70;;;21.70;9.10;;;;;;4994056;28;20507;-60
2023/06/14 09:07:16;;;;;;;10.97;10.23;;;21.70;9.70;;;;;;4994250;28;20232;-59
2023/06/14 09:09:41;;;;;;;11.30;10.60;;;21.70;10.50;;;;;;4994055;28;20471;-59
2023/06/14 09:12:11;;;;;;;10.60;9.90;;;21.80;8.30;;;;;;4993814;28;20417;-59
2023/06/14 09:14:39;;;;;;;13.50;12.60;;;21.90;9.10;;;;;;4994066;28;20181;-60
2023/06/14 09:17:05;;;;;;;11.47;10.77;;;22.30;9.20;;;;;;4994246;28;20425;-60
2023/06/14 09:19:31;;;;;;;10.37;9.57;;;22.30;8.60;;;;;;4994034;28;20422;-59
2023/06/14 09:21:57;;;;;;;10.53;9.93;;;22.20;8.80;;;;;;4993592;28;20429;-61
2023/06/14 09:24:25;;;;;;;11.60;10.83;;;22.30;9.70;;;;;;4994036;28;20182;-61
2023/06/14 09:26:51;;;;;;;12.80;11.73;;;22.30;8.60;;;;;;4993972;28;20245;-60
2023/06/14 09:29:18;;;;;;;11.03;10.33;;;22.30;8.50;;;;;;4993925;28;20480;-60
2023/06/14 09:31:46;;;;;;;10.57;9.97;;;22.30;8.40;;;;;;4993239;28;20276;-60
2023/06/14 09:34:12;;;;;;;12.13;10.00;;;22.30;8.60;;;;;;4993732;28;20512;-59
2023/06/14 09:36:42;;;;;;;10.53;9.90;;;22.30;8.70;;;;;;4993634;28;20504;-59
2023/06/14 09:39:08;;;;;;;10.87;10.23;;;22.30;8.50;;;;;;4993795;28;20212;-60
2023/06/14 09:41:42;;;;;;;11.70;11.00;;;22.40;8.40;;;;;;4993193;28;20495;-60
2023/06/14 09:44:10;;;;;;;10.93;10.33;;;22.40;8.50;;;;;;4993712;28;20832;-61
2023/06/14 09:46:37;;;;;;;11.10;10.20;;;22.40;8.90;;;;;;4993607;28;20476;-61
2023/06/14 09:49:03;;;;;;;11.10;10.50;;;22.40;8.80;;;;;;4993659;28;20465;-61
2023/06/14 09:51:32;;;;;;;10.80;10.10;;;22.50;7.90;;;;;;4993066;28;20877;-61
2023/06/14 09:54:04;;;;;;;11.83;11.10;;;22.70;7.80;;;;;;4993525;28;20444;-61
2023/06/14 09:56:34;;;;;;;11.57;10.97;;;22.90;7.30;;;;;;4993405;28;20417;-61
2023/06/14 09:59:02;;;;;;;10.47;9.87;;;23.10;7.90;;;;;;4993498;28;20429;-61
2023/06/14 10:01:31;;;;;;;10.13;9.60;;;23.30;6.40;;;;;;4992973;28;20421;-60
2023/06/14 10:04:07;;;;;;;11.13;10.30;;;23.50;5.00;;;;;;4992646;28;20417;-60
2023/06/14 10:06:37;;;;;;;10.90;10.13;;;23.80;5.10;;;;;;4993382;28;20791;-61
2023/06/14 10:09:04;;;;;;;12.33;10.90;;;24.10;5.40;;;;;;4993246;28;20825;-61
2023/06/14 10:11:29;;;;;;;10.93;10.33;;;24.20;5.30;;;;;;4992681;28;20421;-60
2023/06/14 10:13:57;;;;;;;12.33;11.10;;;24.30;5.50;;;;;;4993198;28;20774;-61
2023/06/14 10:16:26;;;;;;;12.07;11.17;;;24.50;4.90;;;;;;4992934;28;20185;-60
2023/06/14 10:19:01;;;;;;;10.10;9.50;;;24.80;3.40;;;;;;4992833;28;21141;-60
2023/06/14 10:21:53;;;;;;;10.53;9.83;;;24.90;2.90;;;;;;4992249;28;20520;-59
2023/06/14 10:24:24;;;;;;;10.97;10.20;;;24.90;2.90;;;;;;4992847;28;20833;-60
2023/06/14 10:26:54;;;;;;;10.80;10.20;;;24.90;3.80;;;;;;4994191;28;20410;-59
2023/06/14 10:29:20;;;;;;;10.10;9.47;;;24.70;3.00;;;;;;4992688;28;20476;-60
2023/06/14 10:31:49;;;;;;;10.03;9.33;;;24.40;2.70;;;;;;4992203;28;20439;-58
2023/06/14 10:34:26;;;;;;;9.70;9.00;;;24.20;2.50;;;;;;4992718;28;20193;-59
2023/06/14 10:37:05;;;;;;;10.53;9.77;;;24.00;3.50;;;;;;4992848;28;20424;-60
2023/06/14 10:39:31;;;;;;;10.33;9.73;;;24.10;3.50;;;;;;4992456;28;20417;-60
2023/06/14 10:41:58;;;;;;;10.00;9.40;;;24.10;3.70;;;;;;4991878;28;20437;-60
2023/06/14 10:44:23;;;;;;;10.53;9.90;;;24.20;4.10;;;;;;4992586;28;20775;-62
2023/06/14 10:46:52;;;;;;;10.27;9.60;;;24.20;3.70;;;;;;4992589;28;20433;-62
2023/06/14 10:49:18;;;;;;;9.63;9.17;;;24.30;3.20;;;;;;4992653;28;20620;-61
2023/06/14 10:51:49;;;;;;;9.77;9.07;;;24.50;3.30;;;;;;4991821;28;20512;-59
2023/06/14 10:54:16;;;;;;;10.00;9.50;;;24.60;3.40;;;;;;4992192;28;20483;-59
2023/06/14 10:56:50;;;;;;;9.70;9.10;;;24.70;2.80;;;;;;4992078;28;20413;-60
2023/06/14 10:59:17;;;;;;;9.70;8.80;;;24.80;2.50;;;;;;4992301;28;20436;-60
2023/06/14 11:02:10;;;;;;;10.67;9.97;;;24.90;2.20;;;;;;4991665;28;20425;-60
2023/06/14 11:04:51;;;;;;;10.40;9.70;;;24.70;1.40;;;;;;4992082;28;20456;-60
2023/06/14 11:07:53;;;;;;;10.07;9.40;;;24.50;1.70;;;;;;4992085;28;20471;-60
2023/06/14 11:10:28;;;;;;;10.20;9.37;;;24.60;1.80;;;;;;4991995;28;20948;-61
2023/06/14 11:12:55;;;;;;;9.80;9.10;;;24.60;1.70;;;;;;4991406;28;20416;-60
2023/06/14 11:15:31;;;;;;;10.53;9.87;;;24.60;2.00;;;;;;4991803;28;20428;-60
2023/06/14 11:17:57;;;;;;;9.37;8.87;;;24.50;2.60;;;;;;4991953;28;20424;-60
2023/06/14 11:20:27;;;;;;;9.63;8.93;;;24.50;2.00;;;;;;4991834;28;20417;-60
2023/06/14 11:22:53;;;;;;;8.90;8.43;;;24.50;1.50;;;;;;4991237;28;20499;-60
2023/06/14 11:25:20;;;;;;;15.00;9.30;;;24.30;1.30;;;;;;4991931;28;20533;-60
2023/06/14 11:27:46;;;;;;;10.63;9.47;;;24.20;1.30;;;;;;4991484;28;20488;-60
2023/06/14 11:30:13;;;;;;;9.87;9.27;;;24.10;1.70;;;;;;4991827;28;20550;-60
2023/06/14 11:32:39;;;;;;;10.17;9.30;;;24.20;1.00;;;;;;4991073;28;20249;-60
2023/06/14 11:35:06;;;;;;;9.00;8.50;;;24.10;1.00;;;;;;4991604;28;20421;-60
2023/06/14 11:37:34;;;;;;;10.57;9.97;;;24.00;1.30;;;;;;4991588;28;20425;-60
2023/06/14 11:40:09;;;;;;;9.83;8.90;;;23.90;1.20;;;;;;4991621;28;20495;-60
2023/06/14 11:42:35;;;;;;;9.87;9.30;;;23.90;2.00;;;;;;4991202;28;20423;-60
2023/06/14 11:45:05;;;;;;;9.67;9.17;;;23.90;1.70;;;;;;4993007;28;20420;-59
2023/06/14 11:47:40;;;;;;;10.87;10.10;;;23.80;1.20;;;;;;4991511;28;20417;-61
2023/06/14 11:50:08;;;;;;;10.57;10.03;;;23.80;1.80;;;;;;4991483;28;20504;-60
2023/06/14 11:52:34;;;;;;;10.10;9.50;;;23.80;2.20;;;;;;4990777;28;20409;-60
2023/06/14 11:55:04;;;;;;;9.87;9.33;;;23.90;2.30;;;;;;4991541;28;20409;-60
2023/06/14 11:57:30;;;;;;;10.30;9.80;;;23.80;2.40;;;;;;4991351;28;20413;-60
2023/06/14 11:59:55;;;;;;;9.93;9.43;;;23.80;1.70;;;;;;4991455;28;21036;-59
2023/06/14 12:02:22;;;;;;;9.63;9.13;;;23.70;2.60;;;;;;4990829;28;20216;-60
2023/06/14 12:04:48;;;;;;;11.33;10.60;;;23.70;2.80;;;;;;4991338;28;20661;-60
2023/06/14 12:07:17;;;;;;;10.50;9.80;;;23.70;2.40;;;;;;4991425;28;20417;-59
2023/06/14 12:10:07;;;;;;;10.27;9.67;;;23.60;2.30;;;;;;4992321;28;20484;-59
2023/06/14 12:12:39;;;;;;;9.90;9.40;;;23.50;2.20;;;;;;4990899;28;20845;-60
2023/06/14 12:15:07;;;;;;;11.27;10.67;;;23.40;2.80;;;;;;4991370;28;20421;-60
2023/06/14 12:17:41;;;;;;;11.17;10.33;;;23.40;2.60;;;;;;4991192;28;20533;-60
2023/06/14 12:20:21;;;;;;;10.53;9.80;;;23.50;2.40;;;;;;4991250;28;20494;-60
2023/06/14 12:23:02;;;;;;;9.97;9.30;;;23.50;2.00;;;;;;4990676;28;20451;-59
2023/06/14 12:25:33;;;;;;;10.03;9.40;;;23.60;3.80;;;;;;4991209;28;20413;-61
2023/06/14 12:28:07;;;;;;;9.53;9.13;;;23.50;2.10;;;;;;4992914;28;20822;-60
2023/06/14 12:30:33;;;;;;;10.77;10.17;;;23.50;2.00;;;;;;4994913;28;20455;-60
2023/06/14 12:32:59;;;;;;;10.33;9.43;;;23.60;2.50;;;;;;4994345;28;20428;-59
2023/06/14 12:35:24;;;;;;;11.03;10.43;;;23.60;2.40;;;;;;4994809;28;20413;-60
2023/06/14 12:37:50;;;;;;;10.97;10.37;;;23.70;3.40;;;;;;4994761;28;20217;-59
2023/06/14 12:40:16;;;;;;;11.63;10.93;;;23.70;2.20;;;;;;4994733;28;20249;-60